Time;durP1;ratioP1;P1;durP2;ratioP2;P2;SDS_P1;SDS_P2;PMS_P1;PMS_P2;Temp;Humidity;BMP_temperature;BMP_pressure;BME280_temperature;BME280_humidity;BME280_pressure;Samples;Min_cycle;Max_cycle;Signal;HPM_P1;HPM_P2
2022/06/21 00:00:38;0.00;0.00;0.62;0.00;0.00;0.62;3.27;2.00;;;24.10;27.50;;;;;;2252018;61;20903;-53
2022/06/21 00:03:26;0.00;0.00;0.62;0.00;0.00;0.62;3.23;2.00;;;24.00;27.50;;;;;;2251859;61;20424;-56
2022/06/21 00:06:13;0.00;0.00;0.62;0.00;0.00;0.62;4.07;2.00;;;24.00;27.50;;;;;;2251314;61;20374;-56
2022/06/21 00:08:58;0.00;0.00;0.62;0.00;0.00;0.62;4.13;2.30;;;24.00;27.60;;;;;;2248689;61;20504;-54
2022/06/21 00:11:45;0.00;0.00;0.62;0.00;0.00;0.62;4.17;2.33;;;23.90;27.60;;;;;;2251095;61;20386;-55
2022/06/21 00:14:30;0.00;0.00;0.62;0.00;0.00;0.62;3.33;2.30;;;23.90;27.60;;;;;;2250912;61;20410;-55
2022/06/21 00:17:19;0.00;0.00;0.62;0.00;0.00;0.62;3.80;2.50;;;23.90;27.60;;;;;;2251708;61;20447;-55
2022/06/21 00:20:07;0.00;0.00;0.62;0.00;0.00;0.62;6.00;2.10;;;23.80;27.60;;;;;;2250456;61;20370;-55
2022/06/21 00:22:52;0.00;0.00;0.62;0.00;0.00;0.62;3.90;2.13;;;23.80;27.70;;;;;;2251944;61;20988;-55
2022/06/21 00:25:37;0.00;0.00;0.62;0.00;0.00;0.62;4.30;2.60;;;23.80;27.70;;;;;;2251739;61;20383;-53
2022/06/21 00:28:26;0.00;0.00;0.62;0.00;0.00;0.62;3.47;2.40;;;23.70;27.70;;;;;;2251200;61;20798;-55
2022/06/21 00:31:16;0.00;0.00;0.62;0.00;0.00;0.62;5.50;2.60;;;23.70;27.80;;;;;;2248736;61;20406;-57
2022/06/21 00:34:14;0.00;0.00;0.62;0.00;0.00;0.62;6.27;2.80;;;23.70;27.80;;;;;;2251054;61;20395;-55
2022/06/21 00:37:00;0.00;0.00;0.62;0.00;0.00;0.62;3.03;2.17;;;23.60;27.80;;;;;;2251876;61;20429;-55
2022/06/21 00:39:44;0.00;0.00;0.62;0.00;0.00;0.62;3.87;2.13;;;23.60;27.90;;;;;;2251921;61;20394;-56
2022/06/21 00:42:31;0.00;0.00;0.62;0.00;0.00;0.62;3.90;2.77;;;23.60;27.90;;;;;;2250681;61;20410;-55
2022/06/21 00:45:27;0.00;0.00;0.62;0.00;0.00;0.62;5.70;2.60;;;23.60;28.00;;;;;;2251826;61;20410;-55
2022/06/21 00:48:17;0.00;0.00;0.62;0.00;0.00;0.62;3.83;2.77;;;23.60;28.00;;;;;;2250872;61;20970;-55
2022/06/21 00:51:14;0.00;0.00;0.62;0.00;0.00;0.62;2.73;2.13;;;23.60;28.00;;;;;;2251290;61;20402;-54
2022/06/21 00:54:05;0.00;0.00;0.62;0.00;0.00;0.62;4.70;2.10;;;23.60;28.00;;;;;;2251569;61;20413;-53
2022/06/21 00:56:58;0.00;0.00;0.62;0.00;0.00;0.62;5.53;2.63;;;23.50;28.00;;;;;;2250724;61;20995;-55
2022/06/21 00:59:44;0.00;0.00;0.62;0.00;0.00;0.62;4.53;2.43;;;23.50;28.00;;;;;;2251804;61;20362;-55
2022/06/21 01:02:35;0.00;0.00;0.62;0.00;0.00;0.62;3.10;2.63;;;23.50;28.10;;;;;;2252063;61;20371;-50
2022/06/21 01:05:22;0.00;0.00;0.62;0.00;0.00;0.62;4.10;2.37;;;23.50;28.60;;;;;;2251229;61;20394;-53
2022/06/21 01:08:09;0.00;0.00;0.62;0.00;0.00;0.62;4.47;2.60;;;23.50;28.20;;;;;;2251904;61;20395;-54
2022/06/21 01:10:58;0.00;0.00;0.62;0.00;0.00;0.62;4.90;2.97;;;23.50;28.20;;;;;;2248029;61;20363;-52
2022/06/21 01:13:46;0.00;0.00;0.62;0.00;0.00;0.62;6.43;2.10;;;23.50;28.20;;;;;;2251483;61;20787;-52
2022/06/21 01:16:34;0.00;0.00;0.62;0.00;0.00;0.62;3.10;2.10;;;23.40;28.20;;;;;;2251933;61;20434;-55
2022/06/21 01:19:38;0.00;0.00;0.62;0.00;0.00;0.62;4.43;2.50;;;23.40;28.20;;;;;;2250643;61;20440;-53
2022/06/21 01:22:38;0.00;0.00;0.62;0.00;0.00;0.62;6.63;2.63;;;23.40;28.20;;;;;;2251912;61;20355;-52
2022/06/21 01:25:38;0.00;0.00;0.62;0.00;0.00;0.62;4.07;2.40;;;23.40;28.20;;;;;;2250932;61;20390;-49
2022/06/21 01:28:25;0.00;0.00;0.62;0.00;0.00;0.62;5.23;2.30;;;23.40;28.30;;;;;;2251153;61;20399;-52
2022/06/21 01:31:10;0.00;0.00;0.62;0.00;0.00;0.62;4.77;2.60;;;23.40;28.30;;;;;;2251883;61;20366;-49
2022/06/21 01:33:55;0.00;0.00;0.62;0.00;0.00;0.62;5.20;1.93;;;23.40;28.30;;;;;;2250465;61;20437;-50
2022/06/21 01:36:40;0.00;0.00;0.62;0.00;0.00;0.62;2.90;1.97;;;23.30;28.20;;;;;;2251660;61;20383;-51
2022/06/21 01:39:31;0.00;0.00;0.62;0.00;0.00;0.62;4.27;2.20;;;23.30;28.30;;;;;;2251694;61;20370;-53
2022/06/21 01:42:21;0.00;0.00;0.62;0.00;0.00;0.62;2.80;2.10;;;23.30;28.30;;;;;;2250898;61;20362;-52
2022/06/21 01:45:12;0.00;0.00;0.62;0.00;0.00;0.62;2.70;2.07;;;23.20;28.30;;;;;;2251547;61;20376;-51
2022/06/21 01:48:03;0.00;0.00;0.62;0.00;0.00;0.62;2.33;1.57;;;23.20;28.30;;;;;;2250946;61;20449;-53
2022/06/21 01:50:53;0.00;0.00;0.62;0.00;0.00;0.62;2.00;1.80;;;23.20;28.30;;;;;;2251630;61;20828;-51
2022/06/21 01:53:39;0.00;0.00;0.62;0.00;0.00;0.62;4.60;1.60;;;23.20;28.30;;;;;;2251603;61;20363;-53
2022/06/21 01:56:29;0.00;0.00;0.62;0.00;0.00;0.62;2.53;1.60;;;23.30;28.40;;;;;;2250266;61;20970;-52
2022/06/21 01:59:20;0.00;0.00;0.62;0.00;0.00;0.62;3.90;2.50;;;23.30;28.40;;;;;;2251773;61;20402;-50
2022/06/21 02:02:11;0.00;0.00;0.62;0.00;0.00;0.62;3.80;2.30;;;23.30;28.40;;;;;;2251122;61;20374;-54
2022/06/21 02:05:01;0.00;0.00;0.62;0.00;0.00;0.62;3.73;2.30;;;23.30;28.40;;;;;;2251137;61;20891;-50
2022/06/21 02:07:52;0.00;0.00;0.62;0.00;0.00;0.62;3.60;2.13;;;23.30;28.50;;;;;;2251533;61;20919;-52
2022/06/21 02:10:43;0.00;0.00;0.62;0.00;0.00;0.62;3.20;2.10;;;23.30;28.50;;;;;;2250453;61;20914;-51
2022/06/21 02:13:33;0.00;0.00;0.62;0.00;0.00;0.62;4.80;2.40;;;23.30;28.50;;;;;;2251492;61;20433;-52
2022/06/21 02:16:21;0.00;0.00;0.62;0.00;0.00;0.62;3.60;2.20;;;23.20;28.50;;;;;;2251684;61;20450;-55
2022/06/21 02:19:24;0.00;0.00;0.62;0.00;0.00;0.62;4.97;1.93;;;23.20;28.50;;;;;;2247448;61;20374;-55
2022/06/21 02:22:16;0.00;0.00;0.62;0.00;0.00;0.62;4.90;2.00;;;23.20;28.50;;;;;;2251852;61;20374;-57
2022/06/21 02:25:02;0.00;0.00;0.62;0.00;0.00;0.62;4.53;2.40;;;23.20;28.50;;;;;;2250812;61;20443;-53
2022/06/21 02:27:48;0.00;0.00;0.62;0.00;0.00;0.62;3.90;2.10;;;23.10;28.40;;;;;;2251674;61;20386;-50
2022/06/21 02:30:36;0.00;0.00;0.62;0.00;0.00;0.62;5.73;2.50;;;23.10;28.40;;;;;;2251667;61;20391;-54
2022/06/21 02:33:24;0.00;0.00;0.62;0.00;0.00;0.62;5.53;2.63;;;23.00;28.40;;;;;;2250334;61;20417;-50
2022/06/21 02:36:15;0.00;0.00;0.62;0.00;0.00;0.62;3.40;1.67;;;23.00;28.50;;;;;;2251789;61;20446;-53
2022/06/21 02:39:04;0.00;0.00;0.62;0.00;0.00;0.62;3.03;2.10;;;23.00;28.70;;;;;;2251080;61;20390;-50
2022/06/21 02:41:55;0.00;0.00;0.62;0.00;0.00;0.62;5.13;2.03;;;22.90;28.60;;;;;;2251403;61;20370;-54
2022/06/21 02:44:44;0.00;0.00;0.62;0.00;0.00;0.62;4.47;2.27;;;22.90;28.60;;;;;;2251884;61;20382;-51
2022/06/21 02:47:36;0.00;0.00;0.62;0.00;0.00;0.62;6.57;2.50;;;22.90;28.70;;;;;;2250551;61;21121;-53
2022/06/21 02:50:36;0.00;0.00;0.62;0.00;0.00;0.62;3.20;1.67;;;22.80;28.50;;;;;;2251602;61;20456;-50
2022/06/21 02:53:41;0.00;0.00;0.62;0.00;0.00;0.62;2.90;1.90;;;22.80;28.50;;;;;;2251346;61;20451;-51
2022/06/21 02:56:31;0.00;0.00;0.62;0.00;0.00;0.62;4.07;1.90;;;22.80;28.50;;;;;;2251081;61;20478;-51
2022/06/21 02:59:16;0.00;0.00;0.62;0.00;0.00;0.62;5.70;2.60;;;22.80;28.50;;;;;;2251518;61;20363;-48
2022/06/21 03:02:07;0.00;0.00;0.62;0.00;0.00;0.62;3.77;2.00;;;22.70;28.50;;;;;;2250722;61;20362;-51
2022/06/21 03:04:55;0.00;0.00;0.62;0.00;0.00;0.62;4.57;2.20;;;22.70;28.80;;;;;;2251459;61;20386;-49
2022/06/21 03:07:47;0.00;0.00;0.62;0.00;0.00;0.62;6.17;1.90;;;22.70;28.60;;;;;;2251520;61;20514;-52
2022/06/21 03:10:39;0.00;0.00;0.62;0.00;0.00;0.62;2.20;1.63;;;22.70;28.70;;;;;;2250234;61;20419;-52
2022/06/21 03:13:31;0.00;0.00;0.62;0.00;0.00;0.62;3.67;1.70;;;22.70;28.70;;;;;;2251400;61;20410;-49
2022/06/21 03:16:18;0.00;0.00;0.62;0.00;0.00;0.62;3.30;1.77;;;22.70;28.70;;;;;;2250645;61;21211;-48
2022/06/21 03:19:14;0.00;0.00;0.62;0.00;0.00;0.62;5.10;2.10;;;22.70;28.80;;;;;;2251059;61;20457;-50
2022/06/21 03:22:02;0.00;0.00;0.62;0.00;0.00;0.62;3.70;1.73;;;22.80;28.80;;;;;;2251473;61;20390;-53
2022/06/21 03:24:50;0.00;0.00;0.62;0.00;0.00;0.62;2.00;1.80;;;22.70;28.80;;;;;;2250232;61;20370;-54
2022/06/21 03:27:49;0.00;0.00;0.62;0.00;0.00;0.62;4.47;1.70;;;22.80;28.80;;;;;;2251641;61;20433;-53
2022/06/21 03:30:36;0.00;0.00;0.62;0.00;0.00;0.62;6.40;1.80;;;22.80;28.80;;;;;;2251875;61;20426;-54
2022/06/21 03:33:21;0.00;0.00;0.62;0.00;0.00;0.62;3.40;1.60;;;22.80;28.80;;;;;;2251694;61;20379;-52
2022/06/21 03:36:11;0.00;0.00;0.62;0.00;0.00;0.62;3.20;1.93;;;22.80;28.80;;;;;;2250218;61;20366;-54
2022/06/21 03:39:01;0.00;0.00;0.62;0.00;0.00;0.62;4.00;2.60;;;22.80;29.30;;;;;;2248774;61;20394;-54
2022/06/21 03:41:48;0.00;0.00;0.62;0.00;0.00;0.62;4.43;2.27;;;22.80;28.80;;;;;;2253332;61;20382;-50
2022/06/21 03:44:40;0.00;0.00;0.62;0.00;0.00;0.62;4.10;2.17;;;22.80;28.80;;;;;;2252718;61;20370;-53
2022/06/21 03:47:29;0.00;0.00;0.62;0.00;0.00;0.62;5.50;2.57;;;22.80;28.90;;;;;;2248806;61;20387;-52
2022/06/21 03:50:21;0.00;0.00;0.62;0.00;0.00;0.62;3.00;2.07;;;22.80;28.90;;;;;;2252468;61;20418;-51
2022/06/21 03:53:12;0.00;0.00;0.62;0.00;0.00;0.62;4.63;2.27;;;22.80;29.00;;;;;;2252037;61;20370;-55
2022/06/21 03:56:03;0.00;0.00;0.62;0.00;0.00;0.62;5.10;2.37;;;22.70;29.00;;;;;;2252701;61;20366;-49
2022/06/21 03:59:00;0.00;0.00;0.62;0.00;0.00;0.62;3.93;2.10;;;22.70;29.00;;;;;;2252656;61;20362;-54
2022/06/21 04:01:53;0.00;0.00;0.62;0.00;0.00;0.62;4.53;2.23;;;22.70;29.10;;;;;;2252388;61;20365;-52
2022/06/21 04:04:46;0.00;0.00;0.62;0.00;0.00;0.62;2.80;2.00;;;22.70;29.20;;;;;;2255806;61;20933;-54
2022/06/21 04:07:36;0.00;0.00;0.62;0.00;0.00;0.62;2.77;1.50;;;22.60;29.10;;;;;;2256196;61;20386;-54
2022/06/21 04:10:31;0.00;0.00;0.62;0.00;0.00;0.62;3.50;2.10;;;22.60;29.20;;;;;;2255405;61;20360;-49
2022/06/21 04:13:23;0.00;0.00;0.62;0.00;0.00;0.62;4.00;1.60;;;22.60;29.20;;;;;;2255877;61;20453;-53
2022/06/21 04:16:16;0.00;0.00;0.62;0.00;0.00;0.62;8.30;2.43;;;22.70;29.30;;;;;;2255271;61;20378;-53
2022/06/21 04:19:12;0.00;0.00;0.62;0.00;0.00;0.62;3.57;2.00;;;22.60;29.30;;;;;;2255802;61;20454;-49
2022/06/21 04:22:04;0.00;0.00;0.62;0.00;0.00;0.62;5.53;2.60;;;22.60;29.20;;;;;;2256195;61;20890;-51
2022/06/21 04:24:56;0.00;0.00;0.62;0.00;0.00;0.62;8.00;2.67;;;22.70;29.30;;;;;;2254610;61;20365;-51
2022/06/21 04:27:50;0.00;0.00;0.62;0.00;0.00;0.62;5.00;1.83;;;22.60;29.30;;;;;;2256044;61;20386;-54
2022/06/21 04:30:40;0.00;0.00;0.62;0.00;0.00;0.62;4.00;1.90;;;22.60;29.30;;;;;;2255066;61;20366;-53
2022/06/21 04:33:31;0.00;0.00;0.62;0.00;0.00;0.62;2.70;1.60;;;22.60;29.40;;;;;;2255425;61;20370;-50
2022/06/21 04:36:23;0.00;0.00;0.62;0.00;0.00;0.62;2.00;1.33;;;22.60;29.40;;;;;;2255957;61;20354;-56
2022/06/21 04:39:14;0.00;0.00;0.62;0.00;0.00;0.62;8.50;2.60;;;22.60;29.30;;;;;;2254768;61;20370;-53
2022/06/21 04:42:03;0.00;0.00;0.62;0.00;0.00;0.62;3.30;1.87;;;22.60;29.40;;;;;;2256002;61;20389;-55
2022/06/21 04:44:55;0.00;0.00;0.62;0.00;0.00;0.62;3.07;1.43;;;22.60;29.40;;;;;;2255442;61;20825;-55
2022/06/21 04:47:47;0.00;0.00;0.62;0.00;0.00;0.62;5.20;2.00;;;22.70;29.40;;;;;;2255376;61;20913;-56
2022/06/21 04:50:39;0.00;0.00;0.62;0.00;0.00;0.62;4.17;2.23;;;22.70;29.40;;;;;;2255962;61;20776;-55
2022/06/21 04:53:36;0.00;0.00;0.62;0.00;0.00;0.62;4.67;2.73;;;22.70;29.40;;;;;;2254520;61;20442;-52
2022/06/21 04:56:36;0.00;0.00;0.62;0.00;0.00;0.62;5.90;2.00;;;22.70;29.40;;;;;;2256012;61;20416;-54
2022/06/21 04:59:28;0.00;0.00;0.62;0.00;0.00;0.62;3.80;1.80;;;22.70;29.50;;;;;;2252603;61;21171;-54
2022/06/21 05:02:20;0.00;0.00;0.62;0.00;0.00;0.62;8.73;2.77;;;22.70;29.40;;;;;;2255482;61;20894;-56
2022/06/21 05:05:12;0.00;0.00;0.62;0.00;0.00;0.62;4.67;2.23;;;22.80;29.50;;;;;;2255684;61;20378;-56
2022/06/21 05:08:01;0.00;0.00;0.62;0.00;0.00;0.62;4.50;2.20;;;22.80;29.60;;;;;;2255460;61;20520;-57
2022/06/21 05:10:52;0.00;0.00;0.62;0.00;0.00;0.62;5.67;2.60;;;22.70;29.50;;;;;;2255977;61;20362;-56
2022/06/21 05:13:41;0.00;0.00;0.62;0.00;0.00;0.62;4.73;2.67;;;22.70;29.50;;;;;;2255257;61;21162;-56
2022/06/21 05:16:31;0.00;0.00;0.62;0.00;0.00;0.62;5.20;2.43;;;22.70;29.60;;;;;;2254704;61;20425;-56
2022/06/21 05:19:21;0.00;0.00;0.62;0.00;0.00;0.62;8.57;2.57;;;22.60;29.60;;;;;;2255904;61;20397;-56
2022/06/21 05:22:15;0.00;0.00;0.62;0.00;0.00;0.62;5.60;2.43;;;22.60;29.70;;;;;;2254746;61;20448;-55
2022/06/21 05:25:01;0.00;0.00;0.62;0.00;0.00;0.62;4.40;2.30;;;22.60;29.90;;;;;;2255329;61;20397;-54
2022/06/21 05:27:55;0.00;0.00;0.62;0.00;0.00;0.62;3.83;2.43;;;22.50;29.90;;;;;;2256074;61;20427;-55
2022/06/21 05:30:44;0.00;0.00;0.62;0.00;0.00;0.62;5.40;2.13;;;22.50;30.00;;;;;;2254152;61;20378;-53
2022/06/21 05:33:35;0.00;0.00;0.62;0.00;0.00;0.62;6.87;2.50;;;22.40;30.00;;;;;;2255857;61;20366;-55
2022/06/21 05:36:27;0.00;0.00;0.62;0.00;0.00;0.62;4.90;2.53;;;22.40;30.10;;;;;;2255825;61;20370;-56
2022/06/21 05:39:20;0.00;0.00;0.62;0.00;0.00;0.62;9.87;3.00;;;22.40;30.20;;;;;;2254788;61;20358;-56
2022/06/21 05:42:11;0.00;0.00;0.62;0.00;0.00;0.62;2.93;1.83;;;22.40;30.30;;;;;;2255893;61;20404;-57
2022/06/21 05:45:05;0.00;0.00;0.62;0.00;0.00;0.62;3.43;2.17;;;22.40;30.40;;;;;;2254771;61;20420;-54
2022/06/21 05:47:56;0.00;0.00;0.62;0.00;0.00;0.62;3.40;2.03;;;22.30;30.30;;;;;;2255898;61;20783;-54
2022/06/21 05:50:41;0.00;0.00;0.62;0.00;0.00;0.62;5.87;2.50;;;22.40;30.30;;;;;;2255725;61;21097;-53
2022/06/21 05:53:32;0.00;0.00;0.62;0.00;0.00;0.62;4.77;2.33;;;22.40;30.40;;;;;;2254461;61;20493;-57
2022/06/21 05:56:21;0.00;0.00;0.62;0.00;0.00;0.62;3.93;2.17;;;22.40;30.50;;;;;;2255780;61;20898;-55
2022/06/21 05:59:11;0.00;0.00;0.62;0.00;0.00;0.62;5.17;2.10;;;22.30;30.50;;;;;;2255770;61;20416;-52
2022/06/21 06:02:06;0.00;0.00;0.62;0.00;0.00;0.62;4.10;2.37;;;22.40;30.70;;;;;;2255813;61;20741;-57
2022/06/21 06:04:57;0.00;0.00;0.62;0.00;0.00;0.62;4.83;2.30;;;22.40;30.90;;;;;;2255625;61;20416;-57
2022/06/21 06:07:48;0.00;0.00;0.62;0.00;0.00;0.62;8.63;2.63;;;22.40;30.90;;;;;;2254442;61;20389;-59
2022/06/21 06:10:33;0.00;0.00;0.62;0.00;0.00;0.62;6.50;2.33;;;22.30;31.00;;;;;;2256012;61;20362;-61
2022/06/21 06:13:23;0.00;0.00;0.62;0.00;0.00;0.62;4.97;2.10;;;22.30;31.10;;;;;;2256001;61;20420;-60
2022/06/21 06:16:28;0.00;0.00;0.62;0.00;0.00;0.62;6.63;2.27;;;22.30;31.10;;;;;;2255641;61;20417;-60
2022/06/21 06:19:23;0.00;0.00;0.62;0.00;0.00;0.62;5.60;2.30;;;22.30;31.20;;;;;;2256128;61;20392;-57
2022/06/21 06:22:19;0.00;0.00;0.62;0.00;0.00;0.62;6.87;2.20;;;22.30;31.20;;;;;;2255194;61;20929;-60
2022/06/21 06:25:16;0.00;0.00;0.62;0.00;0.00;0.62;5.37;2.37;;;22.30;31.20;;;;;;2255813;61;20374;-57
2022/06/21 06:28:12;0.00;0.00;0.62;0.00;0.00;0.62;4.00;1.80;;;22.30;31.20;;;;;;2256198;61;20389;-59
2022/06/21 06:31:04;0.00;0.00;0.62;0.00;0.00;0.62;5.57;2.47;;;22.30;31.20;;;;;;2255511;61;20369;-59
2022/06/21 06:33:55;0.00;0.00;0.62;0.00;0.00;0.62;6.23;2.23;;;22.40;31.30;;;;;;2255792;61;20381;-55
2022/06/21 06:36:47;0.00;0.00;0.62;0.00;0.00;0.62;5.67;2.20;;;22.40;31.30;;;;;;2254961;61;20385;-52
2022/06/21 06:39:35;0.00;0.00;0.62;0.00;0.00;0.62;8.70;2.70;;;22.30;31.20;;;;;;2255657;61;20362;-54
2022/06/21 06:42:23;0.00;0.00;0.62;0.00;0.00;0.62;7.97;2.17;;;22.40;31.30;;;;;;2252907;61;20949;-56
2022/06/21 06:45:16;0.00;0.00;0.62;0.00;0.00;0.62;5.83;2.80;;;22.40;31.30;;;;;;2254569;61;20362;-60
2022/06/21 06:48:06;0.00;0.00;0.62;0.00;0.00;0.62;5.67;2.30;;;22.40;31.40;;;;;;2252407;61;20441;-57
2022/06/21 06:51:04;0.00;0.00;0.62;0.00;0.00;0.62;6.30;2.53;;;22.40;31.40;;;;;;2255011;61;20416;-59
2022/06/21 06:53:54;0.00;0.00;0.62;0.00;0.00;0.62;11.93;2.53;;;22.40;31.50;;;;;;2255070;61;20365;-58
2022/06/21 06:56:52;0.00;0.00;0.62;0.00;0.00;0.62;4.80;2.23;;;22.40;31.40;;;;;;2255736;61;20395;-57
2022/06/21 06:59:37;0.00;0.00;0.62;0.00;0.00;0.62;6.63;2.43;;;22.40;31.30;;;;;;2254388;61;20856;-54
2022/06/21 07:02:30;0.00;0.00;0.62;0.00;0.00;0.62;5.40;2.10;;;22.40;31.40;;;;;;2256027;61;20424;-59
2022/06/21 07:05:26;0.00;0.00;0.62;0.00;0.00;0.62;7.27;1.97;;;22.40;31.40;;;;;;2255435;61;20441;-59
2022/06/21 07:08:19;0.00;0.00;0.62;0.00;0.00;0.62;3.43;1.97;;;22.40;31.50;;;;;;2256056;61;20389;-57
2022/06/21 07:11:18;0.00;0.00;0.62;0.00;0.00;0.62;5.63;1.77;;;22.50;31.50;;;;;;2257434;61;20454;-55
2022/06/21 07:14:03;0.00;0.00;0.62;0.00;0.00;0.62;4.77;2.10;;;22.50;31.50;;;;;;2255913;61;20886;-58
2022/06/21 07:16:53;0.00;0.00;0.62;0.00;0.00;0.62;4.40;1.50;;;22.50;31.50;;;;;;2256895;61;20388;-56
2022/06/21 07:19:38;0.00;0.00;0.62;0.00;0.00;0.62;3.10;1.70;;;22.60;31.50;;;;;;2257120;61;20385;-59
2022/06/21 07:22:27;0.00;0.00;0.62;0.00;0.00;0.62;5.23;1.70;;;22.60;31.40;;;;;;2256191;61;20365;-59
2022/06/21 07:25:21;0.00;0.00;0.62;0.00;0.00;0.62;2.43;1.63;;;22.70;31.50;;;;;;2258109;61;20886;-57
2022/06/21 07:28:14;0.00;0.00;0.62;0.00;0.00;0.62;4.20;1.53;;;22.70;31.40;;;;;;2256236;61;20417;-56
2022/06/21 07:31:15;0.00;0.00;0.62;0.00;0.00;0.62;4.30;2.10;;;22.80;31.40;;;;;;2257346;61;20790;-58
2022/06/21 07:34:06;0.00;0.00;0.62;0.00;0.00;0.62;2.70;1.73;;;22.80;31.30;;;;;;2256852;61;20397;-59
2022/06/21 07:36:58;0.00;0.00;0.62;0.00;0.00;0.62;5.43;1.90;;;22.90;31.40;;;;;;2255645;61;20414;-56
2022/06/21 07:39:49;0.00;0.00;0.62;0.00;0.00;0.62;6.10;2.13;;;22.90;31.40;;;;;;2256214;61;20843;-53
2022/06/21 07:42:40;0.00;0.00;0.62;0.00;0.00;0.62;4.30;1.80;;;23.00;31.40;;;;;;2256112;61;20366;-56
2022/06/21 07:45:37;0.00;0.00;0.62;0.00;0.00;0.62;3.10;1.60;;;23.00;31.30;;;;;;2256114;61;20881;-55
2022/06/21 07:48:27;0.00;0.00;0.62;0.00;0.00;0.62;4.37;1.60;;;23.00;31.20;;;;;;2256730;61;20532;-53
2022/06/21 07:51:17;0.00;0.00;0.62;0.00;0.00;0.62;5.27;2.10;;;23.10;31.20;;;;;;2255647;61;20429;-55
2022/06/21 07:54:09;0.00;0.00;0.62;0.00;0.00;0.62;6.83;1.90;;;23.10;31.10;;;;;;2256168;61;20362;-56
2022/06/21 07:56:57;0.00;0.00;0.62;0.00;0.00;0.62;4.70;2.30;;;23.10;31.10;;;;;;2256640;61;20376;-53
2022/06/21 07:59:48;0.00;0.00;0.62;0.00;0.00;0.62;2.40;1.47;;;23.20;31.10;;;;;;2256048;61;20357;-54
2022/06/21 08:08:59;0.00;0.00;0.62;0.00;0.00;0.62;4.27;1.80;;;23.30;30.90;;;;;;2256754;61;20795;-54
2022/06/21 08:11:46;0.00;0.00;0.62;0.00;0.00;0.62;7.87;2.10;;;23.30;30.70;;;;;;2256974;61;20882;-57
2022/06/21 08:14:33;0.00;0.00;0.62;0.00;0.00;0.62;6.33;2.13;;;23.30;30.40;;;;;;2255976;61;20780;-55
2022/06/21 08:17:29;0.00;0.00;0.62;0.00;0.00;0.62;5.57;1.90;;;23.40;30.30;;;;;;2256592;61;20381;-55
2022/06/21 08:20:22;0.00;0.00;0.62;0.00;0.00;0.62;5.33;2.23;;;23.40;30.30;;;;;;2255129;61;20416;-54
2022/06/21 08:23:11;0.00;0.00;0.62;0.00;0.00;0.62;6.20;2.60;;;23.40;30.30;;;;;;2255947;61;20898;-49
2022/06/21 08:26:02;0.00;0.00;0.62;0.00;0.00;0.62;5.60;1.80;;;23.40;30.20;;;;;;2255972;61;20782;-55
2022/06/21 08:28:53;0.00;0.00;0.62;0.00;0.00;0.62;5.10;2.30;;;23.40;30.30;;;;;;2254775;61;20386;-56
2022/06/21 08:31:44;0.00;0.00;0.62;0.00;0.00;0.62;3.67;1.60;;;23.40;30.30;;;;;;2256299;61;20358;-59
2022/06/21 08:34:40;0.00;0.00;0.62;0.00;0.00;0.62;4.73;2.20;;;23.40;30.30;;;;;;2253603;61;21201;-55
2022/06/21 08:37:35;0.00;0.00;0.62;0.00;0.00;0.62;4.27;2.07;;;23.40;30.70;;;;;;2255872;61;20785;-54
2022/06/21 08:41:08;0.00;0.00;0.62;0.00;0.00;0.62;5.77;2.10;;;23.40;29.90;;;;;;2256446;61;20816;-58
2022/06/21 08:44:21;0.00;0.00;0.62;0.00;0.00;0.62;3.63;2.17;;;23.40;29.80;;;;;;2252494;61;20469;-55
2022/06/21 08:47:46;0.00;0.00;0.62;0.00;0.00;0.62;8.23;2.23;;;23.40;29.80;;;;;;2256818;61;20436;-57
2022/06/21 08:50:53;0.00;0.00;0.62;0.00;0.00;0.62;6.20;1.70;;;23.40;29.70;;;;;;2255459;61;20389;-58
2022/06/21 08:53:57;0.00;0.00;0.62;0.00;0.00;0.62;4.10;1.90;;;23.40;29.80;;;;;;2257082;61;20409;-56
2022/06/21 08:56:50;0.00;0.00;0.62;0.00;0.00;0.62;4.43;1.57;;;23.40;29.80;;;;;;2255536;61;20389;-54
2022/06/21 08:59:51;0.00;0.00;0.62;0.00;0.00;0.62;3.30;1.40;;;23.40;29.90;;;;;;2256967;61;20958;-53
2022/06/21 09:02:57;0.00;0.00;0.62;0.00;0.00;0.62;3.03;1.30;;;23.40;30.00;;;;;;2257176;61;20369;-57
2022/06/21 09:06:01;0.00;0.00;0.62;0.00;0.00;0.62;3.87;1.90;;;23.40;30.00;;;;;;2255148;61;20397;-61
2022/06/21 09:09:22;0.00;0.00;0.62;0.00;0.00;0.62;4.80;1.77;;;23.50;30.10;;;;;;2258598;61;20378;-57
2022/06/21 09:12:19;0.00;0.00;0.62;0.00;0.00;0.62;2.60;1.30;;;23.50;30.00;;;;;;2256061;61;20405;-61
2022/06/21 09:15:32;0.00;0.00;0.62;0.00;0.00;0.62;6.40;1.73;;;23.60;30.10;;;;;;2256426;61;20752;-57
2022/06/21 09:18:34;0.00;0.00;0.62;0.00;0.00;0.62;3.07;1.50;;;23.60;30.10;;;;;;2256280;61;20787;-60
2022/06/21 09:21:30;0.00;0.00;0.62;0.00;0.00;0.62;3.93;1.70;;;23.60;30.10;;;;;;2255758;61;20412;-60
2022/06/21 09:24:31;0.00;0.00;0.62;0.00;0.00;0.62;5.73;1.57;;;23.70;30.10;;;;;;2256457;61;20898;-55
2022/06/21 09:27:27;0.00;0.00;0.62;0.00;0.00;0.62;5.80;2.33;;;23.70;30.10;;;;;;2255027;61;20470;-58
2022/06/21 09:30:17;0.00;0.00;0.62;0.00;0.00;0.62;5.17;1.77;;;23.80;30.10;;;;;;2256297;61;20413;-56
2022/06/21 09:33:10;0.00;0.00;0.62;0.00;0.00;0.62;3.07;1.67;;;23.80;30.10;;;;;;2256307;61;20406;-56
2022/06/21 09:36:04;0.00;0.00;0.62;0.00;0.00;0.62;2.77;1.50;;;23.80;30.10;;;;;;2255503;61;20454;-57
2022/06/21 09:38:59;0.00;0.00;0.62;0.00;0.00;0.62;5.90;2.03;;;23.90;30.20;;;;;;2256263;61;20400;-57
2022/06/21 09:41:55;0.00;0.00;0.62;0.00;0.00;0.62;2.07;1.30;;;23.90;30.00;;;;;;2255360;61;20362;-59
2022/06/21 09:44:47;0.00;0.00;0.62;0.00;0.00;0.62;3.97;1.33;;;24.00;30.10;;;;;;2256183;61;20369;-58
2022/06/21 09:47:44;0.00;0.00;0.62;0.00;0.00;0.62;3.10;1.60;;;24.00;30.00;;;;;;2256136;61;20385;-58
2022/06/21 09:50:42;0.00;0.00;0.62;0.00;0.00;0.62;3.00;1.43;;;24.10;30.10;;;;;;2255207;61;20456;-61
2022/06/21 09:53:43;0.00;0.00;0.62;0.00;0.00;0.62;3.03;1.30;;;24.10;30.00;;;;;;2256226;61;20442;-61
2022/06/21 09:56:40;0.00;0.00;0.62;0.00;0.00;0.62;6.30;2.30;;;24.20;30.00;;;;;;2254848;61;20385;-57
2022/06/21 09:59:34;0.00;0.00;0.62;0.00;0.00;0.62;2.83;1.80;;;24.20;30.00;;;;;;2255876;61;20401;-59
2022/06/21 10:02:35;0.00;0.00;0.62;0.00;0.00;0.62;3.53;1.73;;;24.20;30.00;;;;;;2256113;61;20852;-53
2022/06/21 10:05:26;0.00;0.00;0.62;0.00;0.00;0.62;3.37;1.40;;;24.30;30.00;;;;;;2255221;61;20381;-56
2022/06/21 10:08:26;0.00;0.00;0.62;0.00;0.00;0.62;3.17;1.63;;;24.30;30.00;;;;;;2255789;61;20832;-53
2022/06/21 10:11:19;0.00;0.00;0.62;0.00;0.00;0.62;2.67;1.30;;;24.40;29.90;;;;;;2255362;61;20357;-50
2022/06/21 10:14:35;0.00;0.00;0.62;0.00;0.00;0.62;3.63;1.63;;;24.40;29.90;;;;;;2255895;61;20883;-56
2022/06/21 10:17:52;0.00;0.00;0.62;0.00;0.00;0.62;2.57;1.50;;;24.50;29.80;;;;;;2256018;61;20386;-53
2022/06/21 10:21:01;0.00;0.00;0.62;0.00;0.00;0.62;3.40;1.30;;;24.50;29.70;;;;;;2255380;61;20401;-55
2022/06/21 10:24:15;0.00;0.00;0.62;0.00;0.00;0.62;3.20;1.60;;;24.60;29.80;;;;;;2255895;61;20362;-51
2022/06/21 10:27:29;0.00;0.00;0.62;0.00;0.00;0.62;2.27;1.40;;;24.60;29.80;;;;;;2254653;61;20381;-53
2022/06/21 10:30:51;0.00;0.00;0.62;0.00;0.00;0.62;4.77;1.90;;;24.70;30.40;;;;;;2255856;61;20406;-56
2022/06/21 10:34:21;0.00;0.00;0.62;0.00;0.00;0.62;4.17;1.50;;;24.70;29.90;;;;;;2254936;61;20416;-59
2022/06/21 10:37:21;0.00;0.00;0.62;0.00;0.00;0.62;3.47;1.77;;;24.70;29.90;;;;;;2255875;61;20421;-59
2022/06/21 10:40:28;0.00;0.00;0.62;0.00;0.00;0.62;2.40;1.20;;;24.80;29.70;;;;;;2255441;61;20358;-57
2022/06/21 10:43:37;0.00;0.00;0.62;0.00;0.00;0.62;4.57;1.77;;;24.80;29.70;;;;;;2255260;61;20408;-60
2022/06/21 10:46:28;0.00;0.00;0.62;0.00;0.00;0.62;6.40;1.60;;;24.90;29.70;;;;;;2255801;61;20354;-58
2022/06/21 10:49:57;0.00;0.00;0.62;0.00;0.00;0.62;4.43;1.30;;;24.90;29.80;;;;;;2251185;61;21052;-52
2022/06/21 10:53:17;0.00;0.00;0.62;0.00;0.00;0.62;3.13;1.60;;;25.00;29.80;;;;;;2252857;61;20462;-59
2022/06/21 11:01:16;0.00;0.00;0.62;0.00;0.00;0.62;3.40;1.40;;;25.10;29.70;;;;;;2251865;61;20367;-53
2022/06/21 11:03:16;0.00;0.00;0.62;0.00;0.00;0.62;2.57;1.43;;;25.10;29.70;;;;;;2250961;61;20410;-57
2022/06/21 11:06:28;0.00;0.00;0.62;0.00;0.00;0.62;4.17;1.40;;;25.20;29.70;;;;;;2251159;61;20405;-57
2022/06/21 11:09:20;0.00;0.00;0.62;0.00;0.00;0.62;3.17;1.10;;;25.20;29.60;;;;;;2250881;61;20448;-57
2022/06/21 11:15:34;0.00;0.00;0.62;0.00;0.00;0.62;4.90;1.50;;;25.30;29.40;;;;;;2251754;61;20417;-56
2022/06/21 11:18:38;0.00;0.00;0.62;0.00;0.00;0.62;3.00;1.23;;;25.30;29.40;;;;;;2250295;61;20444;-57
2022/06/21 11:21:54;0.00;0.00;0.62;0.00;0.00;0.62;1.80;1.00;;;25.40;29.50;;;;;;2251762;61;20459;-55
2022/06/21 11:24:51;0.00;0.00;0.62;0.00;0.00;0.62;2.17;1.20;;;25.40;29.40;;;;;;2250255;61;20430;-54
2022/06/21 11:27:48;0.00;0.00;0.62;0.00;0.00;0.62;3.00;1.33;;;25.50;29.40;;;;;;2251510;61;20383;-60
2022/06/21 11:30:47;0.00;0.00;0.62;0.00;0.00;0.62;2.50;1.40;;;25.50;29.40;;;;;;2251653;61;20856;-51
2022/06/21 11:33:40;0.00;0.00;0.62;0.00;0.00;0.62;2.70;1.43;;;25.50;29.40;;;;;;2250359;61;20453;-54
2022/06/21 11:36:35;0.00;0.00;0.62;0.00;0.00;0.62;2.50;1.27;;;25.60;29.40;;;;;;2251048;61;20382;-56
2022/06/21 11:39:34;0.00;0.00;0.62;0.00;0.00;0.62;2.37;1.17;;;25.60;29.50;;;;;;2250677;61;20355;-54